createdAt,value
2022-11-15T00:01:18.749Z,97607.34
2022-11-15T00:03:46.222Z,97605.78
2022-11-15T00:06:13.223Z,97602.47
2022-11-15T00:08:39.964Z,97596.69
2022-11-15T00:11:06.700Z,97591.69
2022-11-15T00:13:33.863Z,97596.13
2022-11-15T00:16:02.964Z,97596.22
2022-11-15T00:18:31.094Z,97595.56
2022-11-15T00:21:10.677Z,97595.78
2022-11-15T00:23:38.127Z,97601.81
2022-11-15T00:26:05.216Z,97601.91
2022-11-15T00:28:32.011Z,97597.78
2022-11-15T00:31:07.911Z,97599.53
2022-11-15T00:33:35.081Z,97602.13
2022-11-15T00:36:05.372Z,97604.78
2022-11-15T00:38:38.384Z,97602.94
2022-11-15T00:41:09.607Z,97596.03
2022-11-15T00:43:37.470Z,97595.28
2022-11-15T00:46:04.511Z,97598.72
2022-11-15T00:48:32.321Z,97594.38
2022-11-15T00:50:59.294Z,97592.72
2022-11-15T00:53:26.042Z,97580.66
2022-11-15T00:55:52.865Z,97580.75
2022-11-15T00:58:19.967Z,97590.13
2022-11-15T01:00:46.748Z,97580.84
2022-11-15T01:03:13.553Z,97580.00
2022-11-15T01:05:40.319Z,97576.66
2022-11-15T01:08:07.246Z,97581.09
2022-11-15T01:10:34.837Z,97585.50
2022-11-15T01:13:01.526Z,97581.44
2022-11-15T01:15:28.262Z,97584.94
2022-11-15T01:17:55.754Z,97583.59
2022-11-15T01:20:22.566Z,97574.44
2022-11-15T01:22:49.252Z,97574.63
2022-11-15T01:25:16.038Z,97572.06
2022-11-15T01:27:42.751Z,97571.47
2022-11-15T01:30:10.164Z,97571.66
2022-11-15T01:32:36.949Z,97564.94
2022-11-15T01:35:03.999Z,97577.94
2022-11-15T01:37:30.694Z,97561.91
2022-11-15T01:39:57.425Z,97556.75
2022-11-15T01:42:24.127Z,97554.25
2022-11-15T01:44:52.629Z,97559.59
2022-11-15T01:47:28.818Z,97557.00
2022-11-15T01:50:03.341Z,97563.19
2022-11-15T01:52:35.478Z,97558.13
2022-11-15T01:55:10.190Z,97556.56
2022-11-15T01:57:37.832Z,97551.50
2022-11-15T02:00:06.361Z,97543.91
2022-11-15T02:02:36.517Z,97540.50
2022-11-15T02:05:04.402Z,97534.72
2022-11-15T02:07:33.357Z,97530.69
2022-11-15T02:10:08.700Z,97535.00
2022-11-15T02:12:37.813Z,97531.50
2022-11-15T02:15:07.248Z,97522.94
2022-11-15T02:18:24.253Z,97522.13
2022-11-15T02:21:11.888Z,97514.28
2022-11-15T02:24:29.520Z,97522.75
2022-11-15T02:27:55.178Z,97507.94
2022-11-15T02:30:41.967Z,97501.69
2022-11-15T02:33:42.006Z,97497.19
2022-11-15T02:36:30.234Z,97490.81
2022-11-15T02:39:15.006Z,97482.88
2022-11-15T02:41:55.415Z,97487.06
2022-11-15T02:44:39.107Z,97479.03
2022-11-15T02:47:14.550Z,97483.16
2022-11-15T02:49:48.344Z,97483.81
2022-11-15T02:52:20.515Z,97481.22
2022-11-15T02:54:58.118Z,97471.66
2022-11-15T02:58:00.830Z,97481.88
2022-11-15T03:00:35.935Z,97476.00
2022-11-15T03:03:51.073Z,97475.34
2022-11-15T03:06:47.757Z,97467.69
2022-11-15T03:09:51.091Z,97460.88
2022-11-15T03:12:50.244Z,97467.06
2022-11-15T03:15:23.386Z,97465.59
2022-11-15T03:18:01.429Z,97464.22
2022-11-15T03:20:30.621Z,97454.19
2022-11-15T03:23:08.967Z,97451.88
2022-11-15T03:25:42.637Z,97452.97
2022-11-15T03:28:16.253Z,97454.19
2022-11-15T03:30:46.679Z,97445.06
2022-11-15T03:33:13.647Z,97451.31
2022-11-15T03:35:45.332Z,97451.59
2022-11-15T03:38:25.888Z,97451.84
2022-11-15T03:41:06.747Z,97448.66
2022-11-15T03:44:00.889Z,97446.50
2022-11-15T03:46:47.701Z,97438.16
2022-11-15T03:49:28.431Z,97436.50
2022-11-15T03:51:59.697Z,97433.19
2022-11-15T03:54:26.442Z,97435.13
2022-11-15T03:56:53.247Z,97430.94
2022-11-15T03:59:20.008Z,97429.56
2022-11-15T04:01:46.875Z,97424.53
2022-11-15T04:04:13.694Z,97424.63
2022-11-15T04:06:40.414Z,97430.78
2022-11-15T04:09:07.180Z,97424.84
2022-11-15T04:11:33.883Z,97424.84
2022-11-15T04:14:00.636Z,97429.94
2022-11-15T04:16:27.356Z,97430.00
2022-11-15T04:19:12.554Z,97433.59
2022-11-15T04:21:58.095Z,97431.13
2022-11-15T04:24:24.815Z,97433.88
2022-11-15T04:26:51.708Z,97432.31
2022-11-15T04:29:36.384Z,97428.19
2022-11-15T04:32:07.560Z,97432.56
2022-11-15T04:34:34.308Z,97428.31
2022-11-15T04:37:12.995Z,97434.50
2022-11-15T04:39:41.466Z,97435.41
2022-11-15T04:42:09.447Z,97430.63
2022-11-15T04:44:36.345Z,97440.97
2022-11-15T04:47:03.786Z,97437.66
2022-11-15T04:49:30.484Z,97430.31
2022-11-15T04:51:57.255Z,97425.34
2022-11-15T04:54:24.025Z,97420.34
2022-11-15T04:56:50.811Z,97434.31
2022-11-15T04:59:17.584Z,97418.22
2022-11-15T05:01:45.230Z,97424.38
2022-11-15T05:04:21.347Z,97421.03
2022-11-15T05:06:52.487Z,97414.34
2022-11-15T05:09:21.485Z,97413.69
2022-11-15T05:11:48.819Z,97407.81
2022-11-15T05:14:16.256Z,97404.56
2022-11-15T05:16:43.689Z,97404.66
2022-11-15T05:19:10.724Z,97400.41
2022-11-15T05:21:38.126Z,97399.69
2022-11-15T05:24:05.865Z,97394.63
2022-11-15T05:26:32.814Z,97401.69
2022-11-15T05:29:00.330Z,97400.97
2022-11-15T05:31:28.156Z,97399.44
2022-11-15T05:33:56.621Z,97391.81
2022-11-15T05:36:41.757Z,97391.91
2022-11-15T05:39:09.965Z,97391.16
2022-11-15T05:41:53.110Z,97393.00
2022-11-15T05:44:24.227Z,97395.81
2022-11-15T05:46:55.217Z,97393.50
2022-11-15T05:49:28.046Z,97389.38
2022-11-15T05:51:55.602Z,97392.78
2022-11-15T05:54:25.683Z,97395.34
2022-11-15T05:56:53.291Z,97391.84
2022-11-15T05:59:20.851Z,97385.22
2022-11-15T06:01:47.707Z,97389.53
2022-11-15T06:04:14.470Z,97384.53
2022-11-15T06:06:41.202Z,97394.91
2022-11-15T06:09:07.936Z,97388.13
2022-11-15T06:11:34.803Z,97392.53
2022-11-15T06:14:01.572Z,97397.84
2022-11-15T06:16:28.269Z,97397.09
2022-11-15T06:18:54.991Z,97401.47
2022-11-15T06:21:21.962Z,97400.50
2022-11-15T06:23:51.419Z,97392.88
2022-11-15T06:26:18.163Z,97392.00
2022-11-15T06:28:44.861Z,97406.59
2022-11-15T06:31:12.568Z,97398.00
2022-11-15T06:33:40.341Z,97402.25
2022-11-15T06:36:14.672Z,97398.75
2022-11-15T06:38:45.343Z,97402.97
2022-11-15T06:41:13.777Z,97403.81
2022-11-15T06:43:40.986Z,97398.66
2022-11-15T06:46:08.536Z,97396.00
2022-11-15T06:48:35.910Z,97407.84
2022-11-15T06:51:05.161Z,97414.66
2022-11-15T06:53:33.807Z,97414.47
2022-11-15T06:56:07.269Z,97406.63
2022-11-15T06:58:34.738Z,97412.41
2022-11-15T07:01:04.625Z,97413.91
2022-11-15T07:03:32.401Z,97419.72
2022-11-15T07:06:06.603Z,97416.88
2022-11-15T07:08:34.612Z,97413.22
2022-11-15T07:11:04.965Z,97421.44
2022-11-15T07:13:37.044Z,97415.84
2022-11-15T07:16:06.698Z,97419.38
2022-11-15T07:18:37.045Z,97419.28
2022-11-15T07:21:06.643Z,97412.91
2022-11-15T07:23:34.514Z,97407.19
2022-11-15T07:26:01.494Z,97408.31
2022-11-15T07:28:28.665Z,97411.38
2022-11-15T07:30:55.934Z,97402.59
2022-11-15T07:33:23.266Z,97401.72
2022-11-15T07:35:50.181Z,97391.66
2022-11-15T07:38:21.097Z,97382.94
2022-11-15T07:40:56.165Z,97384.91
2022-11-15T07:43:22.869Z,97375.25
2022-11-15T07:45:52.368Z,97376.94
2022-11-15T07:48:21.507Z,97368.28
2022-11-15T07:50:48.442Z,97366.63
2022-11-15T07:53:17.538Z,97362.28
2022-11-15T07:55:44.273Z,97360.03
2022-11-15T07:58:13.185Z,97351.28
2022-11-15T08:00:39.927Z,97345.59
2022-11-15T08:03:13.007Z,97343.63
2022-11-15T08:05:41.777Z,97340.44
2022-11-15T08:08:11.626Z,97333.06
2022-11-15T08:10:40.785Z,97329.38
2022-11-15T08:13:12.028Z,97327.66
2022-11-15T08:15:39.767Z,97319.97
2022-11-15T08:18:13.027Z,97329.97
2022-11-15T08:20:40.546Z,97327.34
2022-11-15T08:23:08.641Z,97327.44
2022-11-15T08:25:36.845Z,97327.66
2022-11-15T08:28:07.814Z,97318.69
2022-11-15T08:30:42.937Z,97319.91
2022-11-15T08:33:14.829Z,97318.84
2022-11-15T08:35:43.847Z,97323.19
2022-11-15T08:38:10.932Z,97311.56
2022-11-15T08:40:38.333Z,97313.84
2022-11-15T08:43:05.276Z,97318.53
2022-11-15T08:45:34.458Z,97310.75
2022-11-15T08:48:04.060Z,97304.59
2022-11-15T08:50:31.501Z,97297.72
2022-11-15T08:53:09.338Z,97294.19
2022-11-15T08:55:41.617Z,97300.75
2022-11-15T08:58:08.378Z,97302.09
2022-11-15T09:00:35.341Z,97302.66
2022-11-15T09:03:06.158Z,97296.75
2022-11-15T09:05:33.008Z,97295.09
2022-11-15T09:07:59.697Z,97296.75
2022-11-15T09:10:26.431Z,97287.75
2022-11-15T09:12:53.257Z,97298.22
2022-11-15T09:15:20.667Z,97287.06
2022-11-15T09:17:47.367Z,97290.06
2022-11-15T09:20:14.115Z,97294.31
2022-11-15T09:22:41.572Z,97282.03
2022-11-15T09:25:11.069Z,97278.28
2022-11-15T09:27:38.153Z,97286.75
2022-11-15T09:30:05.941Z,97276.06
2022-11-15T09:32:37.966Z,97274.69
2022-11-15T09:35:06.316Z,97275.97
2022-11-15T09:37:33.466Z,97265.63
2022-11-15T09:40:00.169Z,97271.88
2022-11-15T09:42:51.538Z,97270.69
2022-11-15T09:45:33.899Z,97268.47
2022-11-15T09:48:20.396Z,97271.81
2022-11-15T09:50:51.112Z,97267.09
2022-11-15T09:54:30.796Z,97256.97
2022-11-15T09:56:44.376Z,97248.25
2022-11-15T09:59:37.493Z,97248.53
2022-11-15T10:02:37.164Z,97242.56
2022-11-15T10:05:05.032Z,97235.72
2022-11-15T10:08:02.482Z,97232.34
2022-11-15T10:10:49.229Z,97232.03
2022-11-15T10:13:27.722Z,97224.91
2022-11-15T10:16:05.239Z,97229.22
2022-11-15T10:19:09.897Z,97215.50
2022-11-15T10:21:57.039Z,97207.34
2022-11-15T10:24:31.741Z,97208.97
2022-11-15T10:26:58.572Z,97212.63
2022-11-15T10:29:27.127Z,97195.00
2022-11-15T10:31:54.236Z,97197.88
2022-11-15T10:34:27.555Z,97188.44
2022-11-15T10:36:59.862Z,97193.22
2022-11-15T10:39:26.994Z,97188.19
2022-11-15T10:41:54.476Z,97184.94
2022-11-15T10:44:32.636Z,97182.47
2022-11-15T10:46:59.236Z,97171.00
2022-11-15T10:49:31.282Z,97173.47
2022-11-15T10:51:59.064Z,97164.97
2022-11-15T10:54:40.061Z,97164.97
2022-11-15T10:57:16.815Z,97165.31
2022-11-15T10:59:50.474Z,97156.28
2022-11-15T11:03:01.422Z,97147.41
2022-11-15T11:05:46.020Z,97137.47
2022-11-15T11:08:15.707Z,97143.66
2022-11-15T11:11:02.760Z,97139.34
2022-11-15T11:13:38.944Z,97139.28
2022-11-15T11:16:14.388Z,97133.31
2022-11-15T11:19:09.958Z,97136.09
2022-11-15T11:22:21.807Z,97120.28
2022-11-15T11:25:09.660Z,97122.44
2022-11-15T11:28:18.009Z,97121.84
2022-11-15T11:31:26.940Z,97116.47
2022-11-15T11:34:17.347Z,97114.72
2022-11-15T11:36:58.217Z,97103.50
2022-11-15T11:39:42.395Z,97109.28
2022-11-15T11:42:33.092Z,97106.16
2022-11-15T11:45:14.443Z,97099.22
2022-11-15T11:47:55.462Z,97093.38
2022-11-15T11:50:28.612Z,97101.19
2022-11-15T11:53:22.243Z,97091.38
2022-11-15T11:55:55.238Z,97086.78
2022-11-15T11:58:45.666Z,97077.16
2022-11-15T12:01:26.275Z,97078.81
2022-11-15T12:04:20.506Z,97076.44
2022-11-15T12:07:04.420Z,97066.50
2022-11-15T12:09:36.980Z,97060.69
2022-11-15T12:12:40.393Z,97056.28
2022-11-15T12:15:10.370Z,97059.13
2022-11-15T12:17:40.793Z,97058.00
2022-11-15T12:20:27.324Z,97047.81
2022-11-15T12:23:05.049Z,97053.81
2022-11-15T12:25:55.795Z,97052.69
2022-11-15T12:29:06.356Z,97045.34
2022-11-15T12:31:36.194Z,97044.63
2022-11-15T12:34:16.553Z,97041.66
2022-11-15T12:36:45.350Z,97045.44
2022-11-15T12:39:14.876Z,97039.66
2022-11-15T12:41:44.938Z,97031.91
2022-11-15T12:44:38.448Z,97027.59
2022-11-15T12:47:26.140Z,97033.22
2022-11-15T12:49:53.689Z,97032.16
2022-11-15T12:52:21.090Z,97026.38
2022-11-15T12:55:00.584Z,97019.16
2022-11-15T12:57:35.595Z,97026.22
2022-11-15T13:00:15.829Z,97020.19
2022-11-15T13:02:46.221Z,97010.09
2022-11-15T13:05:21.378Z,97012.19
2022-11-15T13:07:48.016Z,97002.19
2022-11-15T13:10:14.653Z,97006.34
2022-11-15T13:12:50.061Z,97006.56
2022-11-15T13:15:38.097Z,97006.72
2022-11-15T13:18:55.603Z,97010.34
2022-11-15T13:21:43.716Z,97006.44
2022-11-15T13:24:17.533Z,96999.88
2022-11-15T13:26:44.436Z,96998.16
2022-11-15T13:29:18.569Z,96988.09
2022-11-15T13:31:47.120Z,96989.09
2022-11-15T13:34:51.147Z,96992.63
2022-11-15T13:37:21.627Z,96990.97
2022-11-15T13:39:50.251Z,96987.25
2022-11-15T13:42:19.309Z,96979.94
2022-11-15T13:45:02.325Z,96978.75
2022-11-15T13:47:31.031Z,96975.81
2022-11-15T13:49:59.387Z,96976.41
2022-11-15T13:52:35.814Z,96977.69
2022-11-15T13:55:15.493Z,96969.88
2022-11-15T13:57:59.764Z,96958.03
2022-11-15T14:00:45.015Z,96961.94
2022-11-15T14:03:27.338Z,96945.69
2022-11-15T14:06:16.882Z,96948.31
2022-11-15T14:09:15.464Z,96944.50
2022-11-15T14:11:56.942Z,96942.97
2022-11-15T14:14:26.497Z,96944.28
2022-11-15T14:17:01.636Z,96939.22
2022-11-15T14:19:28.312Z,96939.38
2022-11-15T14:22:26.884Z,96943.94
2022-11-15T14:25:08.566Z,96941.31
2022-11-15T14:27:35.782Z,96945.50
2022-11-15T14:30:03.738Z,96943.75
2022-11-15T14:32:48.648Z,96934.72
2022-11-15T14:35:22.342Z,96928.97
2022-11-15T14:37:50.184Z,96939.94
2022-11-15T14:40:22.741Z,96940.81
2022-11-15T14:42:50.896Z,96943.75
2022-11-15T14:45:21.361Z,96936.97
2022-11-15T14:47:49.018Z,96936.38
2022-11-15T14:50:20.172Z,96936.75
2022-11-15T14:52:47.860Z,96927.59
2022-11-15T14:55:29.500Z,96935.94
2022-11-15T14:57:56.843Z,96928.25
2022-11-15T15:00:24.169Z,96926.56
2022-11-15T15:02:54.739Z,96924.53
2022-11-15T15:05:38.324Z,96925.97
2022-11-15T15:08:07.110Z,96923.72
2022-11-15T15:10:42.915Z,96909.28
2022-11-15T15:13:26.940Z,96909.31
2022-11-15T15:15:53.751Z,96921.41
2022-11-15T15:18:20.893Z,96908.59
2022-11-15T15:20:57.667Z,96894.06
2022-11-15T15:23:26.403Z,96894.75
2022-11-15T15:25:53.665Z,96894.44
2022-11-15T15:28:20.374Z,96893.50
2022-11-15T15:30:47.084Z,96890.59
2022-11-15T15:33:13.848Z,96893.84
2022-11-15T15:35:40.756Z,96890.41
2022-11-15T15:38:09.163Z,96877.34
2022-11-15T15:40:35.879Z,96878.66
2022-11-15T15:43:02.633Z,96876.38
2022-11-15T15:45:30.555Z,96883.56
2022-11-15T15:48:02.965Z,96876.56
2022-11-15T15:50:39.752Z,96898.22
2022-11-15T15:53:09.561Z,96898.13
2022-11-15T15:55:37.048Z,96899.78
2022-11-15T15:58:05.912Z,96899.66
2022-11-15T16:00:35.779Z,96896.28
2022-11-15T16:03:02.784Z,96895.19
2022-11-15T16:05:29.753Z,96890.28
2022-11-15T16:07:56.493Z,96893.69
2022-11-15T16:10:28.876Z,96902.59
2022-11-15T16:12:57.590Z,96896.44
2022-11-15T16:15:28.448Z,96895.75
2022-11-15T16:18:00.782Z,96888.50
2022-11-15T16:20:45.399Z,96891.53
2022-11-15T16:23:16.584Z,96898.34
2022-11-15T16:25:56.572Z,96893.59
2022-11-15T16:28:28.998Z,96901.66
2022-11-15T16:31:04.529Z,96898.25
2022-11-15T16:33:32.282Z,96895.78
2022-11-15T16:35:59.286Z,96887.28
2022-11-15T16:38:26.472Z,96884.28
2022-11-15T16:40:53.305Z,96886.47
2022-11-15T16:43:20.379Z,96884.84
2022-11-15T16:45:47.201Z,96889.34
2022-11-15T16:48:28.435Z,96885.38
2022-11-15T16:50:59.405Z,96882.09
2022-11-15T16:53:27.769Z,96881.56
2022-11-15T16:55:56.322Z,96870.72
2022-11-15T16:58:24.188Z,96882.50
2022-11-15T17:00:56.141Z,96882.63
2022-11-15T17:03:24.798Z,96878.53
2022-11-15T17:05:53.229Z,96877.81
2022-11-15T17:08:21.975Z,96870.31
2022-11-15T17:10:49.047Z,96862.13
2022-11-15T17:13:15.750Z,96867.44
2022-11-15T17:15:43.421Z,96870.28
2022-11-15T17:18:15.308Z,96861.00
2022-11-15T17:20:43.193Z,96866.47
2022-11-15T17:23:14.492Z,96870.94
2022-11-15T17:25:41.665Z,96858.25
2022-11-15T17:28:08.426Z,96858.34
2022-11-15T17:30:35.654Z,96848.91
2022-11-15T17:33:02.526Z,96849.72
2022-11-15T17:35:29.276Z,96845.34
2022-11-15T17:37:55.956Z,96843.72
2022-11-15T17:40:22.734Z,96841.13
2022-11-15T17:42:49.498Z,96842.22
2022-11-15T17:45:16.379Z,96837.97
2022-11-15T17:47:43.098Z,96836.47
2022-11-15T17:50:10.601Z,96824.97
2022-11-15T17:52:37.555Z,96826.91
2022-11-15T17:55:04.597Z,96821.16
2022-11-15T17:57:31.426Z,96829.22
2022-11-15T17:59:58.126Z,96819.91
2022-11-15T18:02:24.898Z,96814.84
2022-11-15T18:04:51.601Z,96811.56
2022-11-15T18:07:18.331Z,96803.25
2022-11-15T18:09:45.402Z,96804.34
2022-11-15T18:12:12.737Z,96809.78
2022-11-15T18:14:39.699Z,96806.25
2022-11-15T18:17:06.764Z,96802.13
2022-11-15T18:19:33.656Z,96796.09
2022-11-15T18:22:01.303Z,96797.06
2022-11-15T18:24:34.825Z,96794.22
2022-11-15T18:27:03.899Z,96798.88
2022-11-15T18:29:31.226Z,96782.75
2022-11-15T18:31:58.782Z,96778.94
2022-11-15T18:34:31.851Z,96785.91
2022-11-15T18:36:59.208Z,96783.59
2022-11-15T18:39:26.013Z,96783.88
2022-11-15T18:41:52.774Z,96777.31
2022-11-15T18:44:19.842Z,96777.91
2022-11-15T18:46:46.643Z,96773.13
2022-11-15T18:49:16.413Z,96773.00
2022-11-15T18:51:43.863Z,96763.16
2022-11-15T18:54:13.432Z,96770.66
2022-11-15T18:56:40.913Z,96771.09
2022-11-15T18:59:08.600Z,96757.13
2022-11-15T19:01:39.045Z,96751.66
2022-11-15T19:04:18.989Z,96748.09
2022-11-15T19:06:48.820Z,96740.16
2022-11-15T19:09:19.124Z,96746.19
2022-11-15T19:11:48.671Z,96739.06
2022-11-15T19:14:17.742Z,96735.63
2022-11-15T19:16:52.017Z,96738.25
2022-11-15T19:19:24.793Z,96734.00
2022-11-15T19:21:52.733Z,96728.94
2022-11-15T19:24:19.928Z,96727.31
2022-11-15T19:26:46.934Z,96717.88
2022-11-15T19:29:14.114Z,96710.38
2022-11-15T19:31:41.895Z,96715.16
2022-11-15T19:34:09.134Z,96708.47
2022-11-15T19:36:41.109Z,96712.16
2022-11-15T19:39:12.767Z,96713.41
2022-11-15T19:41:44.211Z,96725.69
2022-11-15T19:44:12.605Z,96718.31
2022-11-15T19:46:40.297Z,96734.28
2022-11-15T19:49:10.201Z,96736.88
2022-11-15T19:51:37.596Z,96740.28
2022-11-15T19:54:08.536Z,96743.97
2022-11-15T19:56:36.005Z,96735.09
2022-11-15T19:59:04.961Z,96729.75
2022-11-15T20:01:39.043Z,96735.66
2022-11-15T20:04:07.737Z,96733.88
2022-11-15T20:06:40.248Z,96738.25
2022-11-15T20:09:08.604Z,96742.06
2022-11-15T20:11:37.787Z,96735.38
2022-11-15T20:14:06.386Z,96732.22
2022-11-15T20:16:33.481Z,96731.81
2022-11-15T20:19:00.341Z,96735.34
2022-11-15T20:21:27.199Z,96734.66
2022-11-15T20:23:55.110Z,96738.50
2022-11-15T20:26:22.154Z,96739.59
2022-11-15T20:28:49.016Z,96733.84
2022-11-15T20:31:16.897Z,96739.44
2022-11-15T20:33:43.733Z,96734.66
2022-11-15T20:36:14.108Z,96727.41
2022-11-15T20:38:41.190Z,96747.75
2022-11-15T20:41:08.499Z,96747.31
2022-11-15T20:43:35.307Z,96745.94
2022-11-15T20:46:02.017Z,96727.09
2022-11-15T20:48:28.903Z,96730.78
2022-11-15T20:51:24.903Z,96731.88
2022-11-15T20:53:51.777Z,96730.22
2022-11-15T20:56:21.654Z,96728.72
2022-11-15T20:58:53.200Z,96736.47
2022-11-15T21:01:24.588Z,96725.44
2022-11-15T21:03:56.242Z,96726.53
2022-11-15T21:06:25.509Z,96723.25
2022-11-15T21:09:12.891Z,96717.38
2022-11-15T21:11:59.208Z,96718.34
2022-11-15T21:14:25.981Z,96701.50
2022-11-15T21:16:52.913Z,96705.88
2022-11-15T21:19:23.860Z,96700.97
2022-11-15T21:21:53.885Z,96704.50
2022-11-15T21:24:21.079Z,96700.16
2022-11-15T21:26:47.844Z,96688.28
2022-11-15T21:29:17.095Z,96685.94
2022-11-15T21:31:46.584Z,96679.91
2022-11-15T21:34:13.573Z,96673.38
2022-11-15T21:36:40.382Z,96671.88
2022-11-15T21:39:07.159Z,96672.97
2022-11-15T21:41:35.019Z,96664.59
2022-11-15T21:44:04.150Z,96659.69
2022-11-15T21:46:32.133Z,96656.56
2022-11-15T21:48:59.205Z,96642.34
2022-11-15T21:51:25.932Z,96648.59
2022-11-15T21:53:56.620Z,96642.75
2022-11-15T21:56:25.602Z,96641.09
2022-11-15T21:58:54.261Z,96628.00
2022-11-15T22:01:41.929Z,96628.00
2022-11-15T22:04:09.602Z,96632.25
2022-11-15T22:06:36.814Z,96631.56
2022-11-15T22:09:04.945Z,96623.66
2022-11-15T22:11:32.218Z,96632.66
2022-11-15T22:13:59.870Z,96635.88
2022-11-15T22:16:26.566Z,96627.00
2022-11-15T22:18:54.488Z,96626.84
2022-11-15T22:21:22.214Z,96622.44
2022-11-15T22:23:49.258Z,96625.56
2022-11-15T22:26:23.176Z,96620.84
2022-11-15T22:28:50.661Z,96620.41
2022-11-15T22:31:17.536Z,96620.13
2022-11-15T22:33:44.377Z,96615.31
2022-11-15T22:36:12.835Z,96623.47
2022-11-15T22:38:40.006Z,96629.00
2022-11-15T22:41:07.000Z,96626.81
2022-11-15T22:43:34.722Z,96613.69
2022-11-15T22:46:04.276Z,96603.72
2022-11-15T22:48:36.304Z,96608.34
2022-11-15T22:51:04.718Z,96614.97
2022-11-15T22:53:31.695Z,96608.41
2022-11-15T22:56:02.495Z,96602.00
2022-11-15T22:58:31.976Z,96595.66
2022-11-15T23:01:02.368Z,96588.44
2022-11-15T23:03:30.132Z,96573.41
2022-11-15T23:06:06.547Z,96576.25
2022-11-15T23:08:34.200Z,96567.09
2022-11-15T23:11:22.976Z,96559.56
2022-11-15T23:13:52.070Z,96544.19
2022-11-15T23:16:22.741Z,96545.84
2022-11-15T23:19:03.153Z,96537.13
2022-11-15T23:21:58.579Z,96542.88
2022-11-15T23:24:26.267Z,96544.53
2022-11-15T23:27:07.181Z,96548.06
2022-11-15T23:29:56.645Z,96549.84
2022-11-15T23:32:42.021Z,96548.69
2022-11-15T23:35:09.135Z,96555.06
2022-11-15T23:37:36.035Z,96546.72
2022-11-15T23:40:02.916Z,96539.22
2022-11-15T23:42:29.769Z,96542.31
2022-11-15T23:44:56.562Z,96535.72
2022-11-15T23:47:23.531Z,96534.22
2022-11-15T23:49:50.315Z,96531.06
2022-11-15T23:52:17.445Z,96531.47
2022-11-15T23:54:44.737Z,96532.50
2022-11-15T23:57:12.363Z,96529.47
2022-11-15T23:59:43.449Z,96533.81
